sensor_id;sensor_type;location;lat;lon;timestamp;temperature;humidity
19966;DHT22;10144;50.874;4.762;2023-05-20T00:01:34;13.30;99.90
19966;DHT22;10144;50.874;4.762;2023-05-20T00:07:21;13.10;99.90
19966;DHT22;10144;50.874;4.762;2023-05-20T00:16:32;13.00;99.90
19966;DHT22;10144;50.874;4.762;2023-05-20T00:22:20;12.90;99.90
19966;DHT22;10144;50.874;4.762;2023-05-20T00:28:08;12.90;99.90
19966;DHT22;10144;50.874;4.762;2023-05-20T00:33:56;13.10;99.90
19966;DHT22;10144;50.874;4.762;2023-05-20T00:39:44;12.90;99.90
19966;DHT22;10144;50.874;4.762;2023-05-20T00:45:32;12.90;99.90
19966;DHT22;10144;50.874;4.762;2023-05-20T00:51:20;12.90;99.90
19966;DHT22;10144;50.874;4.762;2023-05-20T00:57:08;12.90;99.90
19966;DHT22;10144;50.874;4.762;2023-05-20T01:03:09;13.00;99.90
19966;DHT22;10144;50.874;4.762;2023-05-20T01:08:58;12.90;99.90
19966;DHT22;10144;50.874;4.762;2023-05-20T01:14:48;12.90;99.90
19966;DHT22;10144;50.874;4.762;2023-05-20T01:20:37;12.80;99.90
19966;DHT22;10144;50.874;4.762;2023-05-20T01:26:26;12.70;99.90
19966;DHT22;10144;50.874;4.762;2023-05-20T01:32:19;12.60;99.90
19966;DHT22;10144;50.874;4.762;2023-05-20T01:38:08;12.70;99.90
19966;DHT22;10144;50.874;4.762;2023-05-20T01:50:40;12.50;99.90
19966;DHT22;10144;50.874;4.762;2023-05-20T01:56:29;12.40;99.90
19966;DHT22;10144;50.874;4.762;2023-05-20T02:02:17;12.20;99.90
19966;DHT22;10144;50.874;4.762;2023-05-20T02:08:05;12.10;99.90
19966;DHT22;10144;50.874;4.762;2023-05-20T02:13:53;12.00;99.90
19966;DHT22;10144;50.874;4.762;2023-05-20T02:16:21;12.00;99.90
19966;DHT22;10144;50.874;4.762;2023-05-20T02:22:10;12.10;99.90
19966;DHT22;10144;50.874;4.762;2023-05-20T02:27:58;11.90;99.90
19966;DHT22;10144;50.874;4.762;2023-05-20T02:33:46;11.90;99.90
19966;DHT22;10144;50.874;4.762;2023-05-20T02:39:34;11.80;99.90
19966;DHT22;10144;50.874;4.762;2023-05-20T02:48:30;11.70;99.90
19966;DHT22;10144;50.874;4.762;2023-05-20T02:54:18;11.60;99.90
19966;DHT22;10144;50.874;4.762;2023-05-20T03:03:30;11.60;99.90
19966;DHT22;10144;50.874;4.762;2023-05-20T03:06:24;11.60;99.90
19966;DHT22;10144;50.874;4.762;2023-05-20T03:12:12;11.60;99.90
19966;DHT22;10144;50.874;4.762;2023-05-20T03:14:44;11.60;99.90
19966;DHT22;10144;50.874;4.762;2023-05-20T03:17:12;11.50;99.90
19966;DHT22;10144;50.874;4.762;2023-05-20T03:20:00;11.40;99.90
19966;DHT22;10144;50.874;4.762;2023-05-20T03:22:28;11.40;99.90
19966;DHT22;10144;50.874;4.762;2023-05-20T03:24:54;11.40;99.90
19966;DHT22;10144;50.874;4.762;2023-05-20T03:27:51;11.40;99.90
19966;DHT22;10144;50.874;4.762;2023-05-20T03:30:20;11.60;99.90
19966;DHT22;10144;50.874;4.762;2023-05-20T03:32:46;11.50;99.90
19966;DHT22;10144;50.874;4.762;2023-05-20T03:35:19;11.50;99.90
19966;DHT22;10144;50.874;4.762;2023-05-20T03:38:00;11.40;99.90
19966;DHT22;10144;50.874;4.762;2023-05-20T03:40:28;11.40;99.90
19966;DHT22;10144;50.874;4.762;2023-05-20T03:43:11;11.50;99.90
19966;DHT22;10144;50.874;4.762;2023-05-20T03:45:43;11.40;99.90
19966;DHT22;10144;50.874;4.762;2023-05-20T03:48:09;11.40;99.90
19966;DHT22;10144;50.874;4.762;2023-05-20T03:51:00;11.40;99.90
19966;DHT22;10144;50.874;4.762;2023-05-20T03:53:26;11.40;99.90
19966;DHT22;10144;50.874;4.762;2023-05-20T03:55:52;11.40;99.90
19966;DHT22;10144;50.874;4.762;2023-05-20T03:58:21;11.40;99.90
19966;DHT22;10144;50.874;4.762;2023-05-20T04:01:10;11.40;99.90
19966;DHT22;10144;50.874;4.762;2023-05-20T04:03:44;11.40;99.90
19966;DHT22;10144;50.874;4.762;2023-05-20T04:06:12;11.50;99.90
19966;DHT22;10144;50.874;4.762;2023-05-20T04:08:53;11.50;99.90
19966;DHT22;10144;50.874;4.762;2023-05-20T04:14:43;11.50;99.90
19966;DHT22;10144;50.874;4.762;2023-05-20T04:20:28;11.50;99.90
19966;DHT22;10144;50.874;4.762;2023-05-20T04:26:15;11.70;99.90
19966;DHT22;10144;50.874;4.762;2023-05-20T04:32:03;11.90;99.90
19966;DHT22;10144;50.874;4.762;2023-05-20T04:35:04;11.90;99.90
19966;DHT22;10144;50.874;4.762;2023-05-20T04:38:01;12.00;99.90
19966;DHT22;10144;50.874;4.762;2023-05-20T04:40:50;12.10;99.90
19966;DHT22;10144;50.874;4.762;2023-05-20T04:47:00;12.40;99.90
19966;DHT22;10144;50.874;4.762;2023-05-20T04:52:40;12.90;99.90
19966;DHT22;10144;50.874;4.762;2023-05-20T04:58:38;13.30;99.90
19966;DHT22;10144;50.874;4.762;2023-05-20T05:01:07;13.70;99.90
19966;DHT22;10144;50.874;4.762;2023-05-20T05:03:47;13.80;99.90
19966;DHT22;10144;50.874;4.762;2023-05-20T05:09:38;14.30;99.90
19966;DHT22;10144;50.874;4.762;2023-05-20T05:12:10;14.40;99.90
19966;DHT22;10144;50.874;4.762;2023-05-20T05:14:37;14.70;99.90
19966;DHT22;10144;50.874;4.762;2023-05-20T05:17:09;14.80;99.90
19966;DHT22;10144;50.874;4.762;2023-05-20T05:19:38;14.90;99.90
19966;DHT22;10144;50.874;4.762;2023-05-20T05:22:07;15.10;99.90
19966;DHT22;10144;50.874;4.762;2023-05-20T05:24:37;15.10;99.90
19966;DHT22;10144;50.874;4.762;2023-05-20T05:30:25;15.40;99.90
19966;DHT22;10144;50.874;4.762;2023-05-20T05:32:54;15.70;99.90
19966;DHT22;10144;50.874;4.762;2023-05-20T05:35:19;15.80;99.90
19966;DHT22;10144;50.874;4.762;2023-05-20T05:37:45;15.90;99.90
19966;DHT22;10144;50.874;4.762;2023-05-20T05:40:11;16.20;99.90
19966;DHT22;10144;50.874;4.762;2023-05-20T05:42:37;16.40;99.90
19966;DHT22;10144;50.874;4.762;2023-05-20T05:45:09;16.70;99.90
19966;DHT22;10144;50.874;4.762;2023-05-20T05:47:37;17.10;99.90
19966;DHT22;10144;50.874;4.762;2023-05-20T05:50:06;17.30;99.90
19966;DHT22;10144;50.874;4.762;2023-05-20T05:53:02;17.50;99.90
19966;DHT22;10144;50.874;4.762;2023-05-20T05:55:28;17.60;99.90
19966;DHT22;10144;50.874;4.762;2023-05-20T05:58:22;17.70;99.90
19966;DHT22;10144;50.874;4.762;2023-05-20T06:00:51;17.80;99.90
19966;DHT22;10144;50.874;4.762;2023-05-20T06:03:41;18.00;99.90
19966;DHT22;10144;50.874;4.762;2023-05-20T06:09:28;18.60;99.90
19966;DHT22;10144;50.874;4.762;2023-05-20T06:11:57;18.90;99.90
19966;DHT22;10144;50.874;4.762;2023-05-20T06:14:23;19.20;99.90
19966;DHT22;10144;50.874;4.762;2023-05-20T06:16:48;19.30;99.90
19966;DHT22;10144;50.874;4.762;2023-05-20T06:19:14;19.50;99.90
19966;DHT22;10144;50.874;4.762;2023-05-20T06:21:41;19.50;99.90
19966;DHT22;10144;50.874;4.762;2023-05-20T06:24:06;19.70;99.90
19966;DHT22;10144;50.874;4.762;2023-05-20T06:26:32;19.90;99.90
19966;DHT22;10144;50.874;4.762;2023-05-20T06:28:57;19.80;99.90
19966;DHT22;10144;50.874;4.762;2023-05-20T06:31:23;20.00;99.90
19966;DHT22;10144;50.874;4.762;2023-05-20T06:34:02;20.40;99.90
19966;DHT22;10144;50.874;4.762;2023-05-20T06:36:31;20.90;99.90
19966;DHT22;10144;50.874;4.762;2023-05-20T06:39:02;20.90;99.90
19966;DHT22;10144;50.874;4.762;2023-05-20T06:41:33;21.00;99.90
19966;DHT22;10144;50.874;4.762;2023-05-20T06:44:05;21.10;99.90
19966;DHT22;10144;50.874;4.762;2023-05-20T06:46:34;21.40;99.90
19966;DHT22;10144;50.874;4.762;2023-05-20T06:49:06;21.50;99.90
19966;DHT22;10144;50.874;4.762;2023-05-20T06:51:32;21.70;99.90
19966;DHT22;10144;50.874;4.762;2023-05-20T06:54:01;21.90;99.90
19966;DHT22;10144;50.874;4.762;2023-05-20T06:56:32;22.10;99.90
19966;DHT22;10144;50.874;4.762;2023-05-20T06:58:58;22.10;99.90
19966;DHT22;10144;50.874;4.762;2023-05-20T07:01:24;22.40;99.90
19966;DHT22;10144;50.874;4.762;2023-05-20T07:03:49;22.40;99.90
19966;DHT22;10144;50.874;4.762;2023-05-20T07:06:15;22.70;99.90
19966;DHT22;10144;50.874;4.762;2023-05-20T07:08:41;22.90;99.90
19966;DHT22;10144;50.874;4.762;2023-05-20T07:11:06;23.30;99.90
19966;DHT22;10144;50.874;4.762;2023-05-20T07:13:32;23.40;99.90
19966;DHT22;10144;50.874;4.762;2023-05-20T07:15:58;23.10;99.90
19966;DHT22;10144;50.874;4.762;2023-05-20T07:18:23;23.40;99.90
19966;DHT22;10144;50.874;4.762;2023-05-20T07:20:49;23.40;99.90
19966;DHT22;10144;50.874;4.762;2023-05-20T07:23:15;23.70;99.90
19966;DHT22;10144;50.874;4.762;2023-05-20T07:25:40;23.80;99.90
19966;DHT22;10144;50.874;4.762;2023-05-20T07:28:06;23.80;99.90
19966;DHT22;10144;50.874;4.762;2023-05-20T07:30:32;24.00;99.90
19966;DHT22;10144;50.874;4.762;2023-05-20T07:32:57;23.90;99.90
19966;DHT22;10144;50.874;4.762;2023-05-20T07:35:23;24.00;99.90
19966;DHT22;10144;50.874;4.762;2023-05-20T07:37:49;24.20;99.90
19966;DHT22;10144;50.874;4.762;2023-05-20T07:40:14;24.60;99.90
19966;DHT22;10144;50.874;4.762;2023-05-20T07:42:40;24.70;99.90
19966;DHT22;10144;50.874;4.762;2023-05-20T07:45:06;24.80;99.90
19966;DHT22;10144;50.874;4.762;2023-05-20T07:47:32;24.80;99.90
19966;DHT22;10144;50.874;4.762;2023-05-20T07:49:57;24.90;99.90
19966;DHT22;10144;50.874;4.762;2023-05-20T07:52:23;24.80;99.90
19966;DHT22;10144;50.874;4.762;2023-05-20T07:54:49;24.90;99.90
19966;DHT22;10144;50.874;4.762;2023-05-20T07:57:14;25.20;99.90
19966;DHT22;10144;50.874;4.762;2023-05-20T07:59:41;25.20;99.90
19966;DHT22;10144;50.874;4.762;2023-05-20T08:02:07;24.90;99.90
19966;DHT22;10144;50.874;4.762;2023-05-20T08:04:33;24.90;99.90
19966;DHT22;10144;50.874;4.762;2023-05-20T08:06:59;25.00;99.90
19966;DHT22;10144;50.874;4.762;2023-05-20T08:09:25;25.00;99.90
19966;DHT22;10144;50.874;4.762;2023-05-20T08:11:50;25.30;99.90
19966;DHT22;10144;50.874;4.762;2023-05-20T08:14:16;25.40;99.90
19966;DHT22;10144;50.874;4.762;2023-05-20T08:16:43;25.00;99.90
19966;DHT22;10144;50.874;4.762;2023-05-20T08:19:08;25.10;99.90
19966;DHT22;10144;50.874;4.762;2023-05-20T08:21:34;25.20;99.90
19966;DHT22;10144;50.874;4.762;2023-05-20T08:24:00;25.10;99.90
19966;DHT22;10144;50.874;4.762;2023-05-20T08:26:26;24.40;99.90
19966;DHT22;10144;50.874;4.762;2023-05-20T08:28:51;24.10;99.90
19966;DHT22;10144;50.874;4.762;2023-05-20T08:31:17;24.40;99.90
19966;DHT22;10144;50.874;4.762;2023-05-20T08:33:44;24.60;99.90
19966;DHT22;10144;50.874;4.762;2023-05-20T08:36:10;24.90;99.90
19966;DHT22;10144;50.874;4.762;2023-05-20T08:38:36;24.80;99.90
19966;DHT22;10144;50.874;4.762;2023-05-20T08:41:02;25.00;99.90
19966;DHT22;10144;50.874;4.762;2023-05-20T08:43:29;25.20;99.90
19966;DHT22;10144;50.874;4.762;2023-05-20T08:45:56;25.10;99.90
19966;DHT22;10144;50.874;4.762;2023-05-20T08:48:25;25.40;99.90
19966;DHT22;10144;50.874;4.762;2023-05-20T08:50:52;25.50;99.90
19966;DHT22;10144;50.874;4.762;2023-05-20T08:53:22;25.70;99.90
19966;DHT22;10144;50.874;4.762;2023-05-20T08:55:55;25.80;99.90
19966;DHT22;10144;50.874;4.762;2023-05-20T08:58:23;25.60;99.90
19966;DHT22;10144;50.874;4.762;2023-05-20T09:00:52;25.50;99.90
19966;DHT22;10144;50.874;4.762;2023-05-20T09:03:18;25.70;99.90
19966;DHT22;10144;50.874;4.762;2023-05-20T09:05:46;25.80;99.90
19966;DHT22;10144;50.874;4.762;2023-05-20T09:08:12;26.00;99.90
19966;DHT22;10144;50.874;4.762;2023-05-20T09:10:39;26.30;99.90
19966;DHT22;10144;50.874;4.762;2023-05-20T09:13:08;26.10;99.90
19966;DHT22;10144;50.874;4.762;2023-05-20T09:15:34;26.30;99.90
19966;DHT22;10144;50.874;4.762;2023-05-20T09:18:02;26.60;99.90
19966;DHT22;10144;50.874;4.762;2023-05-20T09:20:28;26.70;99.90
19966;DHT22;10144;50.874;4.762;2023-05-20T09:22:58;27.00;99.90
19966;DHT22;10144;50.874;4.762;2023-05-20T09:25:24;27.40;99.90
19966;DHT22;10144;50.874;4.762;2023-05-20T09:27:50;27.20;99.90
19966;DHT22;10144;50.874;4.762;2023-05-20T09:30:19;27.30;99.90
19966;DHT22;10144;50.874;4.762;2023-05-20T09:32:54;27.00;99.90
19966;DHT22;10144;50.874;4.762;2023-05-20T09:35:22;26.30;99.90
19966;DHT22;10144;50.874;4.762;2023-05-20T09:37:54;26.10;99.90
19966;DHT22;10144;50.874;4.762;2023-05-20T09:40:27;26.20;99.90
19966;DHT22;10144;50.874;4.762;2023-05-20T09:43:02;26.70;99.90
19966;DHT22;10144;50.874;4.762;2023-05-20T09:45:28;26.50;99.90
19966;DHT22;10144;50.874;4.762;2023-05-20T09:47:54;26.40;99.90
19966;DHT22;10144;50.874;4.762;2023-05-20T09:50:21;26.50;99.90
19966;DHT22;10144;50.874;4.762;2023-05-20T09:52:49;26.60;99.90
19966;DHT22;10144;50.874;4.762;2023-05-20T09:55:17;27.10;99.90
19966;DHT22;10144;50.874;4.762;2023-05-20T09:57:44;27.60;99.90
19966;DHT22;10144;50.874;4.762;2023-05-20T10:00:11;27.70;99.90
19966;DHT22;10144;50.874;4.762;2023-05-20T10:02:44;27.70;99.90
19966;DHT22;10144;50.874;4.762;2023-05-20T10:15:29;27.00;99.90
19966;DHT22;10144;50.874;4.762;2023-05-20T10:20:49;26.60;99.90
19966;DHT22;10144;50.874;4.762;2023-05-20T10:23:22;26.90;99.90
19966;DHT22;10144;50.874;4.762;2023-05-20T10:25:53;27.00;99.90
19966;DHT22;10144;50.874;4.762;2023-05-20T10:28:30;27.20;99.90
19966;DHT22;10144;50.874;4.762;2023-05-20T10:30:56;27.50;99.90
19966;DHT22;10144;50.874;4.762;2023-05-20T10:33:25;27.40;99.90
19966;DHT22;10144;50.874;4.762;2023-05-20T10:35:52;27.80;99.90
19966;DHT22;10144;50.874;4.762;2023-05-20T10:38:20;27.60;99.90
19966;DHT22;10144;50.874;4.762;2023-05-20T10:40:46;27.70;99.90
19966;DHT22;10144;50.874;4.762;2023-05-20T10:43:14;27.90;99.90
19966;DHT22;10144;50.874;4.762;2023-05-20T10:45:51;27.60;99.90
19966;DHT22;10144;50.874;4.762;2023-05-20T10:48:43;27.20;99.90
19966;DHT22;10144;50.874;4.762;2023-05-20T10:51:13;26.80;99.90
19966;DHT22;10144;50.874;4.762;2023-05-20T10:53:41;26.20;99.90
19966;DHT22;10144;50.874;4.762;2023-05-20T10:56:17;26.00;99.90
19966;DHT22;10144;50.874;4.762;2023-05-20T10:58:43;25.70;99.90
19966;DHT22;10144;50.874;4.762;2023-05-20T11:01:09;25.50;99.90
19966;DHT22;10144;50.874;4.762;2023-05-20T11:03:36;25.40;99.90
19966;DHT22;10144;50.874;4.762;2023-05-20T11:06:10;25.90;99.90
19966;DHT22;10144;50.874;4.762;2023-05-20T11:08:36;26.00;99.90
19966;DHT22;10144;50.874;4.762;2023-05-20T11:11:01;25.70;99.90
19966;DHT22;10144;50.874;4.762;2023-05-20T11:13:27;25.50;99.90
19966;DHT22;10144;50.874;4.762;2023-05-20T11:15:53;25.40;99.90
19966;DHT22;10144;50.874;4.762;2023-05-20T11:18:19;25.20;99.90
19966;DHT22;10144;50.874;4.762;2023-05-20T11:20:46;25.00;99.90
19966;DHT22;10144;50.874;4.762;2023-05-20T11:23:13;24.50;99.90
19966;DHT22;10144;50.874;4.762;2023-05-20T11:25:39;24.60;99.90
19966;DHT22;10144;50.874;4.762;2023-05-20T11:28:11;25.00;99.90
19966;DHT22;10144;50.874;4.762;2023-05-20T11:30:38;25.00;99.90
19966;DHT22;10144;50.874;4.762;2023-05-20T11:33:04;25.00;99.90
19966;DHT22;10144;50.874;4.762;2023-05-20T11:35:30;25.20;99.90
19966;DHT22;10144;50.874;4.762;2023-05-20T11:40:28;25.40;99.90
19966;DHT22;10144;50.874;4.762;2023-05-20T11:42:58;25.00;99.90
19966;DHT22;10144;50.874;4.762;2023-05-20T11:45:24;25.10;99.90
19966;DHT22;10144;50.874;4.762;2023-05-20T11:48:01;25.20;99.90
19966;DHT22;10144;50.874;4.762;2023-05-20T11:50:27;25.10;99.90
19966;DHT22;10144;50.874;4.762;2023-05-20T11:53:02;24.70;99.90
19966;DHT22;10144;50.874;4.762;2023-05-20T11:55:28;24.60;99.90
19966;DHT22;10144;50.874;4.762;2023-05-20T11:57:57;24.80;99.90
19966;DHT22;10144;50.874;4.762;2023-05-20T12:00:23;25.00;99.90
19966;DHT22;10144;50.874;4.762;2023-05-20T12:02:50;25.40;99.90
19966;DHT22;10144;50.874;4.762;2023-05-20T12:05:19;25.20;99.90
19966;DHT22;10144;50.874;4.762;2023-05-20T12:07:45;24.50;99.90
19966;DHT22;10144;50.874;4.762;2023-05-20T12:10:12;24.60;99.90
19966;DHT22;10144;50.874;4.762;2023-05-20T12:12:38;24.50;99.90
19966;DHT22;10144;50.874;4.762;2023-05-20T12:15:04;24.60;99.90
19966;DHT22;10144;50.874;4.762;2023-05-20T12:17:42;24.60;99.90
19966;DHT22;10144;50.874;4.762;2023-05-20T12:20:08;24.40;99.90
19966;DHT22;10144;50.874;4.762;2023-05-20T12:22:37;24.30;99.90
19966;DHT22;10144;50.874;4.762;2023-05-20T12:25:03;24.40;99.90
19966;DHT22;10144;50.874;4.762;2023-05-20T12:27:29;24.40;99.90
19966;DHT22;10144;50.874;4.762;2023-05-20T12:30:20;24.30;99.90
19966;DHT22;10144;50.874;4.762;2023-05-20T12:32:50;24.80;99.90
19966;DHT22;10144;50.874;4.762;2023-05-20T12:35:17;24.70;99.90
19966;DHT22;10144;50.874;4.762;2023-05-20T12:37:48;24.30;99.90
19966;DHT22;10144;50.874;4.762;2023-05-20T12:40:17;24.00;99.90
19966;DHT22;10144;50.874;4.762;2023-05-20T12:42:44;23.90;99.90
19966;DHT22;10144;50.874;4.762;2023-05-20T12:45:12;23.90;99.90
19966;DHT22;10144;50.874;4.762;2023-05-20T12:47:38;23.90;99.90
19966;DHT22;10144;50.874;4.762;2023-05-20T12:50:06;23.90;99.90
19966;DHT22;10144;50.874;4.762;2023-05-20T12:52:35;23.90;99.90
19966;DHT22;10144;50.874;4.762;2023-05-20T12:55:01;23.60;99.90
19966;DHT22;10144;50.874;4.762;2023-05-20T12:57:33;23.40;99.90
19966;DHT22;10144;50.874;4.762;2023-05-20T13:00:00;23.40;99.90
19966;DHT22;10144;50.874;4.762;2023-05-20T13:02:29;23.70;99.90
19966;DHT22;10144;50.874;4.762;2023-05-20T13:04:54;24.00;99.90
19966;DHT22;10144;50.874;4.762;2023-05-20T13:07:26;23.70;99.90
19966;DHT22;10144;50.874;4.762;2023-05-20T13:09:55;23.30;99.90
19966;DHT22;10144;50.874;4.762;2023-05-20T13:12:20;23.40;99.90
19966;DHT22;10144;50.874;4.762;2023-05-20T13:14:49;23.60;99.90
19966;DHT22;10144;50.874;4.762;2023-05-20T13:17:16;23.90;99.90
19966;DHT22;10144;50.874;4.762;2023-05-20T13:19:41;24.00;99.90
19966;DHT22;10144;50.874;4.762;2023-05-20T13:22:08;23.60;99.90
19966;DHT22;10144;50.874;4.762;2023-05-20T13:24:34;23.40;99.90
19966;DHT22;10144;50.874;4.762;2023-05-20T13:26:59;23.40;99.90
19966;DHT22;10144;50.874;4.762;2023-05-20T13:29:29;23.10;99.90
19966;DHT22;10144;50.874;4.762;2023-05-20T13:31:55;23.20;99.90
19966;DHT22;10144;50.874;4.762;2023-05-20T13:34:21;23.40;99.90
19966;DHT22;10144;50.874;4.762;2023-05-20T13:36:46;23.50;99.90
19966;DHT22;10144;50.874;4.762;2023-05-20T13:39:18;23.40;99.90
19966;DHT22;10144;50.874;4.762;2023-05-20T13:41:57;23.10;99.90
19966;DHT22;10144;50.874;4.762;2023-05-20T13:44:23;23.00;99.90
19966;DHT22;10144;50.874;4.762;2023-05-20T13:46:48;22.80;99.90
19966;DHT22;10144;50.874;4.762;2023-05-20T13:49:14;22.80;99.90
19966;DHT22;10144;50.874;4.762;2023-05-20T13:51:40;22.90;99.90
19966;DHT22;10144;50.874;4.762;2023-05-20T13:54:05;23.00;99.90
19966;DHT22;10144;50.874;4.762;2023-05-20T13:56:31;22.90;99.90
19966;DHT22;10144;50.874;4.762;2023-05-20T13:58:57;23.10;99.90
19966;DHT22;10144;50.874;4.762;2023-05-20T14:01:22;23.20;99.90
19966;DHT22;10144;50.874;4.762;2023-05-20T14:03:48;23.10;99.90
19966;DHT22;10144;50.874;4.762;2023-05-20T14:06:14;23.10;99.90
19966;DHT22;10144;50.874;4.762;2023-05-20T14:08:43;23.10;99.90
19966;DHT22;10144;50.874;4.762;2023-05-20T14:11:11;23.00;99.90
19966;DHT22;10144;50.874;4.762;2023-05-20T14:13:36;23.10;99.90
19966;DHT22;10144;50.874;4.762;2023-05-20T14:16:02;23.00;99.90
19966;DHT22;10144;50.874;4.762;2023-05-20T14:18:28;22.90;99.90
19966;DHT22;10144;50.874;4.762;2023-05-20T14:20:53;22.90;99.90
19966;DHT22;10144;50.874;4.762;2023-05-20T14:23:20;22.80;99.90
19966;DHT22;10144;50.874;4.762;2023-05-20T14:25:46;22.70;99.90
19966;DHT22;10144;50.874;4.762;2023-05-20T14:28:11;22.70;99.90
19966;DHT22;10144;50.874;4.762;2023-05-20T14:30:37;22.50;99.90
19966;DHT22;10144;50.874;4.762;2023-05-20T14:33:04;22.50;99.90
19966;DHT22;10144;50.874;4.762;2023-05-20T14:35:29;22.50;99.90
19966;DHT22;10144;50.874;4.762;2023-05-20T14:37:55;22.40;99.90
19966;DHT22;10144;50.874;4.762;2023-05-20T14:40:21;22.40;99.90
19966;DHT22;10144;50.874;4.762;2023-05-20T14:42:47;22.40;99.90
19966;DHT22;10144;50.874;4.762;2023-05-20T14:45:12;22.40;99.90
19966;DHT22;10144;50.874;4.762;2023-05-20T14:47:38;22.40;99.90
19966;DHT22;10144;50.874;4.762;2023-05-20T14:50:07;22.10;99.90
19966;DHT22;10144;50.874;4.762;2023-05-20T14:52:33;22.10;99.90
19966;DHT22;10144;50.874;4.762;2023-05-20T14:54:58;22.10;99.90
19966;DHT22;10144;50.874;4.762;2023-05-20T14:57:24;22.00;99.90
19966;DHT22;10144;50.874;4.762;2023-05-20T14:59:51;21.80;99.90
19966;DHT22;10144;50.874;4.762;2023-05-20T15:02:17;21.80;99.90
19966;DHT22;10144;50.874;4.762;2023-05-20T15:04:43;21.60;99.90
19966;DHT22;10144;50.874;4.762;2023-05-20T15:07:11;21.60;99.90
19966;DHT22;10144;50.874;4.762;2023-05-20T15:09:37;21.70;99.90
19966;DHT22;10144;50.874;4.762;2023-05-20T15:12:03;21.70;99.90
19966;DHT22;10144;50.874;4.762;2023-05-20T15:14:28;21.90;99.90
19966;DHT22;10144;50.874;4.762;2023-05-20T15:16:54;21.90;99.90
19966;DHT22;10144;50.874;4.762;2023-05-20T15:19:20;22.00;99.90
19966;DHT22;10144;50.874;4.762;2023-05-20T15:21:45;22.00;99.90
19966;DHT22;10144;50.874;4.762;2023-05-20T15:24:12;22.00;99.90
19966;DHT22;10144;50.874;4.762;2023-05-20T15:26:39;22.00;99.90
19966;DHT22;10144;50.874;4.762;2023-05-20T15:29:04;22.00;99.90
19966;DHT22;10144;50.874;4.762;2023-05-20T15:31:30;21.90;99.90
19966;DHT22;10144;50.874;4.762;2023-05-20T15:33:58;21.80;99.90
19966;DHT22;10144;50.874;4.762;2023-05-20T15:36:24;21.80;99.90
19966;DHT22;10144;50.874;4.762;2023-05-20T15:38:49;21.70;99.90
19966;DHT22;10144;50.874;4.762;2023-05-20T15:41:15;21.50;99.90
19966;DHT22;10144;50.874;4.762;2023-05-20T15:43:41;21.20;99.90
19966;DHT22;10144;50.874;4.762;2023-05-20T15:46:06;21.10;99.90
19966;DHT22;10144;50.874;4.762;2023-05-20T15:48:32;20.90;99.90
19966;DHT22;10144;50.874;4.762;2023-05-20T15:50:59;20.80;99.90
19966;DHT22;10144;50.874;4.762;2023-05-20T15:53:25;20.80;99.90
19966;DHT22;10144;50.874;4.762;2023-05-20T15:55:51;21.00;99.90
19966;DHT22;10144;50.874;4.762;2023-05-20T15:58:17;21.10;99.90
19966;DHT22;10144;50.874;4.762;2023-05-20T16:00:42;21.10;99.90
19966;DHT22;10144;50.874;4.762;2023-05-20T16:03:08;21.10;99.90
19966;DHT22;10144;50.874;4.762;2023-05-20T16:05:35;21.00;99.90
19966;DHT22;10144;50.874;4.762;2023-05-20T16:08:01;20.90;99.90
19966;DHT22;10144;50.874;4.762;2023-05-20T16:10:27;20.60;99.90
19966;DHT22;10144;50.874;4.762;2023-05-20T16:12:57;20.50;99.90
19966;DHT22;10144;50.874;4.762;2023-05-20T16:15:24;20.50;99.90
19966;DHT22;10144;50.874;4.762;2023-05-20T16:17:50;20.60;99.90
19966;DHT22;10144;50.874;4.762;2023-05-20T16:20:16;20.70;99.90
19966;DHT22;10144;50.874;4.762;2023-05-20T16:22:41;20.70;99.90
19966;DHT22;10144;50.874;4.762;2023-05-20T16:25:07;20.80;99.90
19966;DHT22;10144;50.874;4.762;2023-05-20T16:27:35;20.80;99.90
19966;DHT22;10144;50.874;4.762;2023-05-20T16:30:01;20.70;99.90
19966;DHT22;10144;50.874;4.762;2023-05-20T16:32:27;20.50;99.90
19966;DHT22;10144;50.874;4.762;2023-05-20T16:34:52;20.40;99.90
19966;DHT22;10144;50.874;4.762;2023-05-20T16:37:19;20.20;99.90
19966;DHT22;10144;50.874;4.762;2023-05-20T16:39:45;20.10;99.90
19966;DHT22;10144;50.874;4.762;2023-05-20T16:42:12;20.30;99.90
19966;DHT22;10144;50.874;4.762;2023-05-20T16:44:38;20.30;99.90
19966;DHT22;10144;50.874;4.762;2023-05-20T16:47:07;20.40;99.90
19966;DHT22;10144;50.874;4.762;2023-05-20T16:49:36;20.40;99.90
19966;DHT22;10144;50.874;4.762;2023-05-20T16:52:01;20.30;99.90
19966;DHT22;10144;50.874;4.762;2023-05-20T16:54:27;20.40;99.90
19966;DHT22;10144;50.874;4.762;2023-05-20T16:56:53;20.60;99.90
19966;DHT22;10144;50.874;4.762;2023-05-20T16:59:18;20.60;99.90
19966;DHT22;10144;50.874;4.762;2023-05-20T17:01:44;20.70;99.90
19966;DHT22;10144;50.874;4.762;2023-05-20T17:04:10;20.70;99.90
19966;DHT22;10144;50.874;4.762;2023-05-20T17:06:36;20.70;99.90
19966;DHT22;10144;50.874;4.762;2023-05-20T17:09:07;20.60;99.90
19966;DHT22;10144;50.874;4.762;2023-05-20T17:11:33;20.50;99.90
19966;DHT22;10144;50.874;4.762;2023-05-20T17:13:59;20.40;99.90
19966;DHT22;10144;50.874;4.762;2023-05-20T17:16:25;20.30;99.90
19966;DHT22;10144;50.874;4.762;2023-05-20T17:18:50;20.20;99.90
19966;DHT22;10144;50.874;4.762;2023-05-20T17:21:17;20.10;99.90
19966;DHT22;10144;50.874;4.762;2023-05-20T17:23:45;20.00;99.90
19966;DHT22;10144;50.874;4.762;2023-05-20T17:26:11;20.10;99.90
19966;DHT22;10144;50.874;4.762;2023-05-20T17:28:37;20.00;99.90
19966;DHT22;10144;50.874;4.762;2023-05-20T17:31:03;20.00;99.90
19966;DHT22;10144;50.874;4.762;2023-05-20T17:33:28;19.90;99.90
19966;DHT22;10144;50.874;4.762;2023-05-20T17:35:54;19.90;99.90
19966;DHT22;10144;50.874;4.762;2023-05-20T17:38:20;19.90;99.90
19966;DHT22;10144;50.874;4.762;2023-05-20T17:40:48;19.90;99.90
19966;DHT22;10144;50.874;4.762;2023-05-20T17:43:15;19.90;99.90
19966;DHT22;10144;50.874;4.762;2023-05-20T17:45:40;19.80;99.90
19966;DHT22;10144;50.874;4.762;2023-05-20T17:48:06;19.90;99.90
19966;DHT22;10144;50.874;4.762;2023-05-20T17:50:32;20.00;99.90
19966;DHT22;10144;50.874;4.762;2023-05-20T17:52:59;20.00;99.90
19966;DHT22;10144;50.874;4.762;2023-05-20T17:55:25;20.00;99.90
19966;DHT22;10144;50.874;4.762;2023-05-20T17:57:53;19.90;99.90
19966;DHT22;10144;50.874;4.762;2023-05-20T18:00:18;19.90;99.90
19966;DHT22;10144;50.874;4.762;2023-05-20T18:02:46;19.90;99.90
19966;DHT22;10144;50.874;4.762;2023-05-20T18:05:13;19.90;99.90
19966;DHT22;10144;50.874;4.762;2023-05-20T18:07:41;20.00;99.90
19966;DHT22;10144;50.874;4.762;2023-05-20T18:10:07;20.10;99.90
19966;DHT22;10144;50.874;4.762;2023-05-20T18:12:34;20.10;99.90
19966;DHT22;10144;50.874;4.762;2023-05-20T18:15:00;20.00;99.90
19966;DHT22;10144;50.874;4.762;2023-05-20T18:17:26;19.80;99.90
19966;DHT22;10144;50.874;4.762;2023-05-20T18:19:52;19.90;99.90